sensor_id;sensor_type;location;lat;lon;timestamp;temperature;humidity
24152;DHT22;12311;50.866;4.332;2023-06-26T00:02:17;22.90;99.90
24152;DHT22;12311;50.866;4.332;2023-06-26T00:04:43;22.90;99.90
24152;DHT22;12311;50.866;4.332;2023-06-26T00:07:09;22.90;99.90
24152;DHT22;12311;50.866;4.332;2023-06-26T00:09:35;22.80;99.90
24152;DHT22;12311;50.866;4.332;2023-06-26T00:12:01;22.80;99.90
24152;DHT22;12311;50.866;4.332;2023-06-26T00:14:27;22.60;99.90
24152;DHT22;12311;50.866;4.332;2023-06-26T00:16:52;22.50;99.90
24152;DHT22;12311;50.866;4.332;2023-06-26T00:19:18;22.50;99.90
24152;DHT22;12311;50.866;4.332;2023-06-26T00:21:44;22.30;99.90
24152;DHT22;12311;50.866;4.332;2023-06-26T00:24:16;22.30;99.90
24152;DHT22;12311;50.866;4.332;2023-06-26T00:26:43;22.30;99.90
24152;DHT22;12311;50.866;4.332;2023-06-26T00:29:09;22.20;99.90
24152;DHT22;12311;50.866;4.332;2023-06-26T00:31:34;22.10;99.90
24152;DHT22;12311;50.866;4.332;2023-06-26T00:34:01;22.10;99.90
24152;DHT22;12311;50.866;4.332;2023-06-26T00:36:27;22.00;99.90
24152;DHT22;12311;50.866;4.332;2023-06-26T00:38:53;21.80;99.90
24152;DHT22;12311;50.866;4.332;2023-06-26T00:41:19;21.70;99.90
24152;DHT22;12311;50.866;4.332;2023-06-26T00:43:45;21.70;99.90
24152;DHT22;12311;50.866;4.332;2023-06-26T00:46:12;21.70;99.90
24152;DHT22;12311;50.866;4.332;2023-06-26T00:48:40;21.60;99.90
24152;DHT22;12311;50.866;4.332;2023-06-26T00:51:06;21.60;99.90
24152;DHT22;12311;50.866;4.332;2023-06-26T00:53:33;21.60;99.90
24152;DHT22;12311;50.866;4.332;2023-06-26T00:55:59;21.60;99.90
24152;DHT22;12311;50.866;4.332;2023-06-26T00:58:25;21.60;99.90
24152;DHT22;12311;50.866;4.332;2023-06-26T01:00:52;21.50;99.90
24152;DHT22;12311;50.866;4.332;2023-06-26T01:03:19;21.50;99.90
24152;DHT22;12311;50.866;4.332;2023-06-26T01:05:45;21.40;99.90
24152;DHT22;12311;50.866;4.332;2023-06-26T01:08:15;21.40;99.90
24152;DHT22;12311;50.866;4.332;2023-06-26T01:10:41;21.30;99.90
24152;DHT22;12311;50.866;4.332;2023-06-26T01:13:08;21.30;99.90
24152;DHT22;12311;50.866;4.332;2023-06-26T01:15:34;21.30;99.90
24152;DHT22;12311;50.866;4.332;2023-06-26T01:18:00;21.20;99.90
24152;DHT22;12311;50.866;4.332;2023-06-26T01:20:31;21.20;99.90
24152;DHT22;12311;50.866;4.332;2023-06-26T01:23:17;21.20;99.90
24152;DHT22;12311;50.866;4.332;2023-06-26T01:28:41;21.00;99.90
24152;DHT22;12311;50.866;4.332;2023-06-26T01:31:08;21.00;99.90
24152;DHT22;12311;50.866;4.332;2023-06-26T01:33:34;21.00;99.90
24152;DHT22;12311;50.866;4.332;2023-06-26T01:36:01;21.00;99.90
24152;DHT22;12311;50.866;4.332;2023-06-26T01:38:27;21.00;99.90
24152;DHT22;12311;50.866;4.332;2023-06-26T01:40:53;20.90;99.90
24152;DHT22;12311;50.866;4.332;2023-06-26T01:43:43;20.90;99.90
24152;DHT22;12311;50.866;4.332;2023-06-26T01:51:38;20.90;99.90
24152;DHT22;12311;50.866;4.332;2023-06-26T01:54:10;20.90;99.90
24152;DHT22;12311;50.866;4.332;2023-06-26T01:56:39;20.80;99.90
24152;DHT22;12311;50.866;4.332;2023-06-26T01:59:06;20.70;99.90
24152;DHT22;12311;50.866;4.332;2023-06-26T02:01:33;20.60;99.90
24152;DHT22;12311;50.866;4.332;2023-06-26T02:03:59;20.60;99.90
24152;DHT22;12311;50.866;4.332;2023-06-26T02:06:25;20.60;99.90
24152;DHT22;12311;50.866;4.332;2023-06-26T02:08:50;20.60;99.90
24152;DHT22;12311;50.866;4.332;2023-06-26T02:11:16;20.50;99.90
24152;DHT22;12311;50.866;4.332;2023-06-26T02:13:42;20.40;99.90
24152;DHT22;12311;50.866;4.332;2023-06-26T02:16:07;20.40;99.90
24152;DHT22;12311;50.866;4.332;2023-06-26T02:18:33;20.50;99.90
24152;DHT22;12311;50.866;4.332;2023-06-26T02:20:59;20.40;99.90
24152;DHT22;12311;50.866;4.332;2023-06-26T02:23:25;20.50;99.90
24152;DHT22;12311;50.866;4.332;2023-06-26T02:25:50;20.60;99.90
24152;DHT22;12311;50.866;4.332;2023-06-26T02:28:16;20.60;99.90
24152;DHT22;12311;50.866;4.332;2023-06-26T02:30:42;20.60;99.90
24152;DHT22;12311;50.866;4.332;2023-06-26T02:33:08;20.40;99.90
24152;DHT22;12311;50.866;4.332;2023-06-26T02:35:33;20.40;99.90
24152;DHT22;12311;50.866;4.332;2023-06-26T02:37:59;20.30;99.90
24152;DHT22;12311;50.866;4.332;2023-06-26T02:40:25;20.30;99.90
24152;DHT22;12311;50.866;4.332;2023-06-26T02:42:50;20.20;99.90
24152;DHT22;12311;50.866;4.332;2023-06-26T02:45:16;20.10;99.90
24152;DHT22;12311;50.866;4.332;2023-06-26T02:47:41;20.20;99.90
24152;DHT22;12311;50.866;4.332;2023-06-26T02:50:07;20.20;99.90
24152;DHT22;12311;50.866;4.332;2023-06-26T02:52:33;20.10;99.90
24152;DHT22;12311;50.866;4.332;2023-06-26T02:54:59;20.00;99.90
24152;DHT22;12311;50.866;4.332;2023-06-26T02:57:24;20.00;99.90
24152;DHT22;12311;50.866;4.332;2023-06-26T02:59:50;19.90;99.90
24152;DHT22;12311;50.866;4.332;2023-06-26T03:02:16;19.80;99.90
24152;DHT22;12311;50.866;4.332;2023-06-26T03:04:41;19.90;99.90
24152;DHT22;12311;50.866;4.332;2023-06-26T03:07:08;19.80;99.90
24152;DHT22;12311;50.866;4.332;2023-06-26T03:09:34;19.70;99.90
24152;DHT22;12311;50.866;4.332;2023-06-26T03:12:00;19.60;99.90
24152;DHT22;12311;50.866;4.332;2023-06-26T03:14:26;19.50;99.90
24152;DHT22;12311;50.866;4.332;2023-06-26T03:16:52;19.50;99.90
24152;DHT22;12311;50.866;4.332;2023-06-26T03:19:18;19.40;99.90
24152;DHT22;12311;50.866;4.332;2023-06-26T03:21:44;19.40;99.90
24152;DHT22;12311;50.866;4.332;2023-06-26T03:24:09;19.40;99.90
24152;DHT22;12311;50.866;4.332;2023-06-26T03:26:35;19.40;99.90
24152;DHT22;12311;50.866;4.332;2023-06-26T03:29:01;19.30;99.90
24152;DHT22;12311;50.866;4.332;2023-06-26T03:31:26;19.20;99.90
24152;DHT22;12311;50.866;4.332;2023-06-26T03:33:52;19.10;99.90
24152;DHT22;12311;50.866;4.332;2023-06-26T03:36:18;19.20;99.90
24152;DHT22;12311;50.866;4.332;2023-06-26T03:38:43;19.10;99.90
24152;DHT22;12311;50.866;4.332;2023-06-26T03:41:09;19.10;99.90
24152;DHT22;12311;50.866;4.332;2023-06-26T03:43:35;19.10;99.90
24152;DHT22;12311;50.866;4.332;2023-06-26T03:46:00;19.10;99.90
24152;DHT22;12311;50.866;4.332;2023-06-26T03:48:26;19.00;99.90
24152;DHT22;12311;50.866;4.332;2023-06-26T03:50:51;18.90;99.90
24152;DHT22;12311;50.866;4.332;2023-06-26T03:53:17;18.90;99.90
24152;DHT22;12311;50.866;4.332;2023-06-26T03:55:43;18.90;99.90
24152;DHT22;12311;50.866;4.332;2023-06-26T03:58:08;18.90;99.90
24152;DHT22;12311;50.866;4.332;2023-06-26T04:00:34;19.00;99.90
24152;DHT22;12311;50.866;4.332;2023-06-26T04:03:00;18.90;99.90
24152;DHT22;12311;50.866;4.332;2023-06-26T04:05:25;18.80;99.90
24152;DHT22;12311;50.866;4.332;2023-06-26T04:07:52;18.70;99.90
24152;DHT22;12311;50.866;4.332;2023-06-26T04:10:18;18.70;99.90
24152;DHT22;12311;50.866;4.332;2023-06-26T04:12:45;18.70;99.90
24152;DHT22;12311;50.866;4.332;2023-06-26T04:15:10;18.70;99.90
24152;DHT22;12311;50.866;4.332;2023-06-26T04:17:36;18.70;99.90
24152;DHT22;12311;50.866;4.332;2023-06-26T04:20:02;18.70;99.90
24152;DHT22;12311;50.866;4.332;2023-06-26T04:22:32;18.70;99.90
24152;DHT22;12311;50.866;4.332;2023-06-26T04:24:57;18.60;99.90
24152;DHT22;12311;50.866;4.332;2023-06-26T04:27:23;18.60;99.90
24152;DHT22;12311;50.866;4.332;2023-06-26T04:29:49;18.60;99.90
24152;DHT22;12311;50.866;4.332;2023-06-26T04:32:14;18.60;99.90
24152;DHT22;12311;50.866;4.332;2023-06-26T04:34:40;18.50;99.90
24152;DHT22;12311;50.866;4.332;2023-06-26T04:37:08;18.60;99.90
24152;DHT22;12311;50.866;4.332;2023-06-26T04:39:36;18.50;99.90
24152;DHT22;12311;50.866;4.332;2023-06-26T04:42:03;18.40;99.90
24152;DHT22;12311;50.866;4.332;2023-06-26T04:44:29;18.40;99.90
24152;DHT22;12311;50.866;4.332;2023-06-26T04:46:54;18.40;99.90
24152;DHT22;12311;50.866;4.332;2023-06-26T04:49:20;18.30;99.90
24152;DHT22;12311;50.866;4.332;2023-06-26T04:51:46;18.30;99.90
24152;DHT22;12311;50.866;4.332;2023-06-26T04:54:11;18.30;99.90
24152;DHT22;12311;50.866;4.332;2023-06-26T04:56:38;18.30;99.90
24152;DHT22;12311;50.866;4.332;2023-06-26T04:59:05;18.30;99.90
24152;DHT22;12311;50.866;4.332;2023-06-26T05:01:31;18.20;99.90
24152;DHT22;12311;50.866;4.332;2023-06-26T05:04:00;18.30;99.90
24152;DHT22;12311;50.866;4.332;2023-06-26T05:06:26;18.50;99.90
24152;DHT22;12311;50.866;4.332;2023-06-26T05:08:52;18.40;99.90
24152;DHT22;12311;50.866;4.332;2023-06-26T05:11:18;18.40;99.90
24152;DHT22;12311;50.866;4.332;2023-06-26T05:13:43;18.30;99.90
24152;DHT22;12311;50.866;4.332;2023-06-26T05:16:09;18.30;99.90
24152;DHT22;12311;50.866;4.332;2023-06-26T05:18:35;18.40;99.90
24152;DHT22;12311;50.866;4.332;2023-06-26T05:21:02;18.40;99.90
24152;DHT22;12311;50.866;4.332;2023-06-26T05:23:31;18.50;99.90
24152;DHT22;12311;50.866;4.332;2023-06-26T05:25:57;18.40;99.90
24152;DHT22;12311;50.866;4.332;2023-06-26T05:28:24;18.60;99.90
24152;DHT22;12311;50.866;4.332;2023-06-26T05:30:51;18.60;99.90
24152;DHT22;12311;50.866;4.332;2023-06-26T05:33:18;18.50;99.90
24152;DHT22;12311;50.866;4.332;2023-06-26T05:35:48;18.50;99.90
24152;DHT22;12311;50.866;4.332;2023-06-26T05:38:15;18.60;99.90
24152;DHT22;12311;50.866;4.332;2023-06-26T05:40:41;18.60;99.90
24152;DHT22;12311;50.866;4.332;2023-06-26T05:43:07;18.70;99.90
24152;DHT22;12311;50.866;4.332;2023-06-26T05:45:33;18.70;99.90
24152;DHT22;12311;50.866;4.332;2023-06-26T05:47:59;18.80;99.90
24152;DHT22;12311;50.866;4.332;2023-06-26T05:50:25;18.70;99.90
24152;DHT22;12311;50.866;4.332;2023-06-26T05:52:52;18.70;99.90
24152;DHT22;12311;50.866;4.332;2023-06-26T05:55:18;18.70;99.90
24152;DHT22;12311;50.866;4.332;2023-06-26T05:57:45;18.80;99.90
24152;DHT22;12311;50.866;4.332;2023-06-26T06:00:12;18.80;99.90
24152;DHT22;12311;50.866;4.332;2023-06-26T06:02:38;18.80;99.90
24152;DHT22;12311;50.866;4.332;2023-06-26T06:05:05;18.90;99.90
24152;DHT22;12311;50.866;4.332;2023-06-26T06:07:34;18.80;99.90
24152;DHT22;12311;50.866;4.332;2023-06-26T06:10:00;19.00;99.90
24152;DHT22;12311;50.866;4.332;2023-06-26T06:12:26;19.00;99.90
24152;DHT22;12311;50.866;4.332;2023-06-26T06:14:52;19.20;99.90
24152;DHT22;12311;50.866;4.332;2023-06-26T06:17:20;19.20;99.90
24152;DHT22;12311;50.866;4.332;2023-06-26T06:19:45;19.20;99.90
24152;DHT22;12311;50.866;4.332;2023-06-26T06:22:11;19.20;99.90
24152;DHT22;12311;50.866;4.332;2023-06-26T06:24:37;19.40;99.90
24152;DHT22;12311;50.866;4.332;2023-06-26T06:27:03;19.40;99.90
24152;DHT22;12311;50.866;4.332;2023-06-26T06:29:28;19.30;99.90
24152;DHT22;12311;50.866;4.332;2023-06-26T06:31:54;19.40;99.90
24152;DHT22;12311;50.866;4.332;2023-06-26T06:34:20;19.30;99.90
24152;DHT22;12311;50.866;4.332;2023-06-26T06:36:46;19.40;99.90
24152;DHT22;12311;50.866;4.332;2023-06-26T06:39:12;19.40;99.90
24152;DHT22;12311;50.866;4.332;2023-06-26T06:41:38;19.40;99.90
24152;DHT22;12311;50.866;4.332;2023-06-26T06:44:04;19.50;99.90
24152;DHT22;12311;50.866;4.332;2023-06-26T06:46:29;19.50;99.90
24152;DHT22;12311;50.866;4.332;2023-06-26T06:48:55;19.70;99.90
24152;DHT22;12311;50.866;4.332;2023-06-26T06:51:22;19.90;99.90
24152;DHT22;12311;50.866;4.332;2023-06-26T06:53:47;19.80;99.90
24152;DHT22;12311;50.866;4.332;2023-06-26T06:56:13;19.70;99.90
24152;DHT22;12311;50.866;4.332;2023-06-26T06:58:39;19.70;99.90
24152;DHT22;12311;50.866;4.332;2023-06-26T07:01:09;19.80;99.90
24152;DHT22;12311;50.866;4.332;2023-06-26T07:03:35;19.80;99.90
24152;DHT22;12311;50.866;4.332;2023-06-26T07:06:02;19.80;99.90
24152;DHT22;12311;50.866;4.332;2023-06-26T07:08:28;19.90;99.90
24152;DHT22;12311;50.866;4.332;2023-06-26T07:10:54;19.90;99.90
24152;DHT22;12311;50.866;4.332;2023-06-26T07:13:22;19.90;99.90
24152;DHT22;12311;50.866;4.332;2023-06-26T07:15:48;19.90;99.90
24152;DHT22;12311;50.866;4.332;2023-06-26T07:18:14;19.90;99.90
24152;DHT22;12311;50.866;4.332;2023-06-26T07:20:40;20.00;99.90
24152;DHT22;12311;50.866;4.332;2023-06-26T07:23:06;20.00;99.90
24152;DHT22;12311;50.866;4.332;2023-06-26T07:25:31;20.10;99.90
24152;DHT22;12311;50.866;4.332;2023-06-26T07:27:57;19.90;99.90
24152;DHT22;12311;50.866;4.332;2023-06-26T07:30:23;20.00;99.90
24152;DHT22;12311;50.866;4.332;2023-06-26T07:32:49;20.00;99.90
24152;DHT22;12311;50.866;4.332;2023-06-26T07:35:15;20.00;99.90
24152;DHT22;12311;50.866;4.332;2023-06-26T07:37:42;20.10;99.90
24152;DHT22;12311;50.866;4.332;2023-06-26T07:40:08;20.20;99.90
24152;DHT22;12311;50.866;4.332;2023-06-26T07:42:34;20.30;99.90
24152;DHT22;12311;50.866;4.332;2023-06-26T07:44:59;20.50;99.90
24152;DHT22;12311;50.866;4.332;2023-06-26T07:47:25;20.70;99.90
24152;DHT22;12311;50.866;4.332;2023-06-26T07:49:51;20.70;99.90
24152;DHT22;12311;50.866;4.332;2023-06-26T07:52:18;20.60;99.90
24152;DHT22;12311;50.866;4.332;2023-06-26T07:54:44;20.60;99.90
24152;DHT22;12311;50.866;4.332;2023-06-26T07:57:10;20.80;99.90
24152;DHT22;12311;50.866;4.332;2023-06-26T07:59:37;20.80;99.90
24152;DHT22;12311;50.866;4.332;2023-06-26T08:02:03;20.90;99.90
24152;DHT22;12311;50.866;4.332;2023-06-26T08:04:29;21.00;99.90
24152;DHT22;12311;50.866;4.332;2023-06-26T08:06:58;21.20;99.90
24152;DHT22;12311;50.866;4.332;2023-06-26T08:09:28;21.50;99.90
24152;DHT22;12311;50.866;4.332;2023-06-26T08:11:54;21.30;99.90
24152;DHT22;12311;50.866;4.332;2023-06-26T08:14:20;21.40;99.90
24152;DHT22;12311;50.866;4.332;2023-06-26T08:16:46;21.40;99.90
24152;DHT22;12311;50.866;4.332;2023-06-26T08:19:13;21.40;99.90
24152;DHT22;12311;50.866;4.332;2023-06-26T08:21:43;21.50;99.90
24152;DHT22;12311;50.866;4.332;2023-06-26T08:24:09;21.70;99.90
24152;DHT22;12311;50.866;4.332;2023-06-26T08:26:35;22.00;99.90
24152;DHT22;12311;50.866;4.332;2023-06-26T08:29:01;21.90;99.90
24152;DHT22;12311;50.866;4.332;2023-06-26T08:31:36;22.00;99.90
24152;DHT22;12311;50.866;4.332;2023-06-26T08:34:03;22.20;99.90
24152;DHT22;12311;50.866;4.332;2023-06-26T08:36:29;22.30;99.90
24152;DHT22;12311;50.866;4.332;2023-06-26T08:38:55;22.20;99.90
24152;DHT22;12311;50.866;4.332;2023-06-26T08:41:20;22.20;99.90
24152;DHT22;12311;50.866;4.332;2023-06-26T08:43:46;22.20;99.90
24152;DHT22;12311;50.866;4.332;2023-06-26T08:46:14;22.20;99.90
24152;DHT22;12311;50.866;4.332;2023-06-26T08:48:43;22.50;99.90
24152;DHT22;12311;50.866;4.332;2023-06-26T08:51:13;22.40;99.90
24152;DHT22;12311;50.866;4.332;2023-06-26T08:56:15;22.40;99.90
24152;DHT22;12311;50.866;4.332;2023-06-26T08:58:42;22.40;99.90
24152;DHT22;12311;50.866;4.332;2023-06-26T09:01:08;22.60;99.90
24152;DHT22;12311;50.866;4.332;2023-06-26T09:03:35;22.70;99.90
24152;DHT22;12311;50.866;4.332;2023-06-26T09:06:00;22.70;99.90
24152;DHT22;12311;50.866;4.332;2023-06-26T09:08:26;22.40;99.90
24152;DHT22;12311;50.866;4.332;2023-06-26T09:10:52;22.60;99.90
24152;DHT22;12311;50.866;4.332;2023-06-26T09:13:18;22.60;99.90
24152;DHT22;12311;50.866;4.332;2023-06-26T09:15:45;22.90;99.90
24152;DHT22;12311;50.866;4.332;2023-06-26T09:18:11;23.20;99.90
24152;DHT22;12311;50.866;4.332;2023-06-26T09:20:37;23.10;99.90
24152;DHT22;12311;50.866;4.332;2023-06-26T09:23:03;23.20;99.90
24152;DHT22;12311;50.866;4.332;2023-06-26T09:25:30;23.60;99.90
24152;DHT22;12311;50.866;4.332;2023-06-26T09:27:56;23.70;99.90
24152;DHT22;12311;50.866;4.332;2023-06-26T09:30:22;23.80;99.90
24152;DHT22;12311;50.866;4.332;2023-06-26T09:32:48;23.90;99.90
24152;DHT22;12311;50.866;4.332;2023-06-26T09:35:16;23.90;99.90
24152;DHT22;12311;50.866;4.332;2023-06-26T09:37:42;24.00;99.90
24152;DHT22;12311;50.866;4.332;2023-06-26T09:40:09;23.90;99.90
24152;DHT22;12311;50.866;4.332;2023-06-26T09:42:35;24.00;99.90
24152;DHT22;12311;50.866;4.332;2023-06-26T09:45:02;23.90;99.90
24152;DHT22;12311;50.866;4.332;2023-06-26T09:47:30;23.90;99.90
24152;DHT22;12311;50.866;4.332;2023-06-26T09:49:57;24.00;99.90
24152;DHT22;12311;50.866;4.332;2023-06-26T09:52:26;23.80;99.90
24152;DHT22;12311;50.866;4.332;2023-06-26T09:55:07;24.00;99.90
24152;DHT22;12311;50.866;4.332;2023-06-26T09:57:34;24.20;99.90
24152;DHT22;12311;50.866;4.332;2023-06-26T10:00:01;24.40;99.90
24152;DHT22;12311;50.866;4.332;2023-06-26T10:02:27;24.80;99.90
24152;DHT22;12311;50.866;4.332;2023-06-26T10:04:53;25.00;99.90
24152;DHT22;12311;50.866;4.332;2023-06-26T10:07:18;25.60;99.90
24152;DHT22;12311;50.866;4.332;2023-06-26T10:09:46;25.50;99.90
24152;DHT22;12311;50.866;4.332;2023-06-26T10:12:27;25.30;99.90
24152;DHT22;12311;50.866;4.332;2023-06-26T10:14:53;25.30;99.90
24152;DHT22;12311;50.866;4.332;2023-06-26T10:17:21;25.00;99.90
24152;DHT22;12311;50.866;4.332;2023-06-26T10:19:50;25.00;99.90
24152;DHT22;12311;50.866;4.332;2023-06-26T10:22:20;25.60;99.90
24152;DHT22;12311;50.866;4.332;2023-06-26T10:24:47;25.90;99.90
24152;DHT22;12311;50.866;4.332;2023-06-26T10:27:21;25.50;99.90
24152;DHT22;12311;50.866;4.332;2023-06-26T10:29:50;25.30;99.90
24152;DHT22;12311;50.866;4.332;2023-06-26T10:32:18;25.20;99.90
24152;DHT22;12311;50.866;4.332;2023-06-26T10:34:45;25.20;99.90
24152;DHT22;12311;50.866;4.332;2023-06-26T10:37:12;24.70;99.90
24152;DHT22;12311;50.866;4.332;2023-06-26T10:39:53;24.60;99.90
24152;DHT22;12311;50.866;4.332;2023-06-26T10:42:42;24.50;99.90
24152;DHT22;12311;50.866;4.332;2023-06-26T10:45:17;24.50;99.90
24152;DHT22;12311;50.866;4.332;2023-06-26T10:47:48;25.20;99.90
24152;DHT22;12311;50.866;4.332;2023-06-26T10:50:28;25.50;99.90
24152;DHT22;12311;50.866;4.332;2023-06-26T10:56:03;25.50;99.90
24152;DHT22;12311;50.866;4.332;2023-06-26T11:03:44;24.70;99.90
24152;DHT22;12311;50.866;4.332;2023-06-26T11:08:51;24.20;99.90
24152;DHT22;12311;50.866;4.332;2023-06-26T11:11:20;25.00;99.90
24152;DHT22;12311;50.866;4.332;2023-06-26T11:13:47;25.50;99.90
24152;DHT22;12311;50.866;4.332;2023-06-26T11:16:14;25.60;99.90
24152;DHT22;12311;50.866;4.332;2023-06-26T11:18:40;25.30;99.90
24152;DHT22;12311;50.866;4.332;2023-06-26T11:21:10;24.60;99.90
24152;DHT22;12311;50.866;4.332;2023-06-26T11:23:41;24.40;99.90
24152;DHT22;12311;50.866;4.332;2023-06-26T11:26:18;24.30;99.90
24152;DHT22;12311;50.866;4.332;2023-06-26T11:29:01;24.10;99.90
24152;DHT22;12311;50.866;4.332;2023-06-26T11:31:30;24.30;99.90
24152;DHT22;12311;50.866;4.332;2023-06-26T11:34:01;24.70;99.90
24152;DHT22;12311;50.866;4.332;2023-06-26T11:36:27;25.00;99.90
24152;DHT22;12311;50.866;4.332;2023-06-26T11:39:01;25.70;99.40
24152;DHT22;12311;50.866;4.332;2023-06-26T11:41:30;25.60;97.70
24152;DHT22;12311;50.866;4.332;2023-06-26T11:44:00;26.40;97.50
24152;DHT22;12311;50.866;4.332;2023-06-26T11:46:27;27.00;96.80
24152;DHT22;12311;50.866;4.332;2023-06-26T11:48:53;27.60;95.60
24152;DHT22;12311;50.866;4.332;2023-06-26T11:51:19;27.40;94.30
24152;DHT22;12311;50.866;4.332;2023-06-26T11:53:47;27.70;93.60
24152;DHT22;12311;50.866;4.332;2023-06-26T11:56:14;27.80;91.30
24152;DHT22;12311;50.866;4.332;2023-06-26T12:01:27;27.70;90.90
24152;DHT22;12311;50.866;4.332;2023-06-26T12:03:57;28.30;90.70
24152;DHT22;12311;50.866;4.332;2023-06-26T12:06:24;28.70;89.30
24152;DHT22;12311;50.866;4.332;2023-06-26T12:08:49;28.70;87.90
24152;DHT22;12311;50.866;4.332;2023-06-26T12:11:18;28.10;87.50
24152;DHT22;12311;50.866;4.332;2023-06-26T12:13:45;28.00;85.00
24152;DHT22;12311;50.866;4.332;2023-06-26T12:16:12;27.50;84.80
24152;DHT22;12311;50.866;4.332;2023-06-26T12:18:39;27.40;85.80
24152;DHT22;12311;50.866;4.332;2023-06-26T12:21:06;27.40;84.50
24152;DHT22;12311;50.866;4.332;2023-06-26T12:23:41;27.20;86.80
24152;DHT22;12311;50.866;4.332;2023-06-26T12:26:20;27.60;85.10
24152;DHT22;12311;50.866;4.332;2023-06-26T12:28:46;27.70;82.90
24152;DHT22;12311;50.866;4.332;2023-06-26T12:31:14;27.80;83.30
24152;DHT22;12311;50.866;4.332;2023-06-26T12:33:40;28.20;83.10
24152;DHT22;12311;50.866;4.332;2023-06-26T12:36:13;28.50;82.40
24152;DHT22;12311;50.866;4.332;2023-06-26T12:38:40;27.60;81.40
24152;DHT22;12311;50.866;4.332;2023-06-26T12:41:12;27.20;83.70
24152;DHT22;12311;50.866;4.332;2023-06-26T12:43:39;26.40;86.20
24152;DHT22;12311;50.866;4.332;2023-06-26T12:46:05;25.70;86.40
24152;DHT22;12311;50.866;4.332;2023-06-26T12:48:44;25.40;88.40
24152;DHT22;12311;50.866;4.332;2023-06-26T12:51:13;25.30;89.30
24152;DHT22;12311;50.866;4.332;2023-06-26T12:53:39;25.60;88.20
24152;DHT22;12311;50.866;4.332;2023-06-26T12:56:08;25.90;88.90
24152;DHT22;12311;50.866;4.332;2023-06-26T12:58:35;25.70;87.90
24152;DHT22;12311;50.866;4.332;2023-06-26T13:01:04;25.90;85.90
24152;DHT22;12311;50.866;4.332;2023-06-26T13:03:30;26.10;85.20
24152;DHT22;12311;50.866;4.332;2023-06-26T13:05:55;27.00;84.30
24152;DHT22;12311;50.866;4.332;2023-06-26T13:08:21;27.70;83.00
24152;DHT22;12311;50.866;4.332;2023-06-26T13:10:47;27.90;83.00
24152;DHT22;12311;50.866;4.332;2023-06-26T13:13:13;27.40;83.50
24152;DHT22;12311;50.866;4.332;2023-06-26T13:15:38;26.40;85.70
24152;DHT22;12311;50.866;4.332;2023-06-26T13:18:04;25.70;88.50
24152;DHT22;12311;50.866;4.332;2023-06-26T13:20:30;25.20;90.60
24152;DHT22;12311;50.866;4.332;2023-06-26T13:22:55;24.80;90.80
24152;DHT22;12311;50.866;4.332;2023-06-26T13:25:22;24.80;91.80
24152;DHT22;12311;50.866;4.332;2023-06-26T13:27:48;26.00;90.00
24152;DHT22;12311;50.866;4.332;2023-06-26T13:30:15;26.40;89.30
24152;DHT22;12311;50.866;4.332;2023-06-26T13:32:41;26.30;88.00
24152;DHT22;12311;50.866;4.332;2023-06-26T13:35:07;25.70;89.10
24152;DHT22;12311;50.866;4.332;2023-06-26T13:37:32;25.30;90.00
24152;DHT22;12311;50.866;4.332;2023-06-26T13:40:02;25.50;90.30
24152;DHT22;12311;50.866;4.332;2023-06-26T13:42:28;26.10;89.40
24152;DHT22;12311;50.866;4.332;2023-06-26T13:44:54;26.20;88.60
24152;DHT22;12311;50.866;4.332;2023-06-26T13:47:20;26.20;88.90
24152;DHT22;12311;50.866;4.332;2023-06-26T13:49:46;26.20;87.50
24152;DHT22;12311;50.866;4.332;2023-06-26T13:52:12;26.40;87.40
24152;DHT22;12311;50.866;4.332;2023-06-26T13:54:37;27.20;84.70
24152;DHT22;12311;50.866;4.332;2023-06-26T13:57:06;27.80;80.80
24152;DHT22;12311;50.866;4.332;2023-06-26T13:59:33;28.40;78.20
24152;DHT22;12311;50.866;4.332;2023-06-26T14:01:58;28.20;76.70
24152;DHT22;12311;50.866;4.332;2023-06-26T14:04:25;27.70;78.00
24152;DHT22;12311;50.866;4.332;2023-06-26T14:06:51;27.50;79.80
24152;DHT22;12311;50.866;4.332;2023-06-26T14:09:17;27.70;80.20
24152;DHT22;12311;50.866;4.332;2023-06-26T14:11:43;28.00;79.50
24152;DHT22;12311;50.866;4.332;2023-06-26T14:14:09;28.10;79.90
24152;DHT22;12311;50.866;4.332;2023-06-26T14:16:35;28.20;78.70
24152;DHT22;12311;50.866;4.332;2023-06-26T14:19:00;27.70;78.90
24152;DHT22;12311;50.866;4.332;2023-06-26T14:21:27;27.30;79.70
24152;DHT22;12311;50.866;4.332;2023-06-26T14:23:54;27.00;80.60
24152;DHT22;12311;50.866;4.332;2023-06-26T14:26:20;26.30;82.50
24152;DHT22;12311;50.866;4.332;2023-06-26T14:28:45;26.00;84.10
24152;DHT22;12311;50.866;4.332;2023-06-26T14:31:11;26.10;84.80
24152;DHT22;12311;50.866;4.332;2023-06-26T14:33:37;26.20;83.90
24152;DHT22;12311;50.866;4.332;2023-06-26T14:36:03;27.10;82.40
24152;DHT22;12311;50.866;4.332;2023-06-26T14:38:28;27.30;79.20
24152;DHT22;12311;50.866;4.332;2023-06-26T14:40:54;27.10;79.80
24152;DHT22;12311;50.866;4.332;2023-06-26T14:43:20;26.60;79.50
24152;DHT22;12311;50.866;4.332;2023-06-26T14:45:46;26.50;81.50
24152;DHT22;12311;50.866;4.332;2023-06-26T14:48:11;26.40;80.90
24152;DHT22;12311;50.866;4.332;2023-06-26T14:50:37;26.20;82.60
24152;DHT22;12311;50.866;4.332;2023-06-26T14:53:03;26.10;83.10
24152;DHT22;12311;50.866;4.332;2023-06-26T14:55:28;26.00;84.10
24152;DHT22;12311;50.866;4.332;2023-06-26T14:57:54;26.00;84.40
24152;DHT22;12311;50.866;4.332;2023-06-26T15:00:20;26.00;83.90
24152;DHT22;12311;50.866;4.332;2023-06-26T15:02:47;25.60;83.70
24152;DHT22;12311;50.866;4.332;2023-06-26T15:05:13;25.30;86.10
24152;DHT22;12311;50.866;4.332;2023-06-26T15:07:38;25.10;87.90
24152;DHT22;12311;50.866;4.332;2023-06-26T15:10:04;25.20;87.50
24152;DHT22;12311;50.866;4.332;2023-06-26T15:12:31;24.80;89.00
24152;DHT22;12311;50.866;4.332;2023-06-26T15:14:57;24.30;90.20
24152;DHT22;12311;50.866;4.332;2023-06-26T15:17:23;24.30;90.80
24152;DHT22;12311;50.866;4.332;2023-06-26T15:19:48;24.40;91.00
24152;DHT22;12311;50.866;4.332;2023-06-26T15:22:17;24.50;91.10
24152;DHT22;12311;50.866;4.332;2023-06-26T15:24:43;24.20;91.30
24152;DHT22;12311;50.866;4.332;2023-06-26T15:27:09;24.30;91.80
24152;DHT22;12311;50.866;4.332;2023-06-26T15:29:35;24.30;91.10
24152;DHT22;12311;50.866;4.332;2023-06-26T15:32:01;24.30;90.90
24152;DHT22;12311;50.866;4.332;2023-06-26T15:34:26;24.70;91.10
24152;DHT22;12311;50.866;4.332;2023-06-26T15:36:52;24.80;90.40
24152;DHT22;12311;50.866;4.332;2023-06-26T15:39:18;24.80;90.20
24152;DHT22;12311;50.866;4.332;2023-06-26T15:41:44;24.90;90.00
24152;DHT22;12311;50.866;4.332;2023-06-26T15:44:10;25.30;89.60
24152;DHT22;12311;50.866;4.332;2023-06-26T15:46:36;25.70;86.60
24152;DHT22;12311;50.866;4.332;2023-06-26T15:49:02;25.60;86.40
24152;DHT22;12311;50.866;4.332;2023-06-26T15:51:27;25.60;85.70
24152;DHT22;12311;50.866;4.332;2023-06-26T15:53:53;25.20;85.20